Time;durP1;ratioP1;P1;durP2;ratioP2;P2;SDS_P1;SDS_P2;PMS_P1;PMS_P2;Temp;Humidity;BMP_temperature;BMP_pressure;BME280_temperature;BME280_humidity;BME280_pressure;Samples;Min_cycle;Max_cycle;Signal;HPM_P1;HPM_P2
2023/12/04 00:02:47;;;;;;;10.80;9.27;;;;;;;;;;10326706;28;20607;-66
2023/12/04 00:07:45;;;;;;;11.77;8.85;;;;;;;;;;10326580;28;20067;-66
2023/12/04 00:12:45;;;;;;;10.32;8.40;;;;;;;;;;10304513;28;20485;-66
2023/12/04 00:17:45;;;;;;;12.30;9.98;;;;;;;;;;10323431;28;20080;-66
2023/12/04 00:22:44;;;;;;;9.35;7.97;;;;;;;;;;10316945;28;20048;-66
2023/12/04 00:27:42;;;;;;;12.10;9.38;;;;;;;;;;10326179;28;20071;-66
2023/12/04 00:32:42;;;;;;;11.35;8.82;;;;;;;;;;10326089;28;20068;-66
2023/12/04 00:37:40;;;;;;;9.75;8.63;;;;;;;;;;10327477;28;20087;-65
2023/12/04 00:42:38;;;;;;;9.68;8.05;;;;;;;;;;10325347;28;20083;-66
2023/12/04 00:47:37;;;;;;;9.93;8.13;;;;;;;;;;10308104;28;20432;-67
2023/12/04 00:52:36;;;;;;;10.38;8.50;;;;;;;;;;10326224;28;20063;-67
2023/12/04 00:57:34;;;;;;;11.32;9.10;;;;;;;;;;10324474;28;20513;-66
2023/12/04 01:02:33;;;;;;;9.13;7.35;;;;;;;;;;10325763;28;20068;-66
2023/12/04 01:07:31;;;;;;;9.30;7.00;;;;;;;;;;10328366;28;20063;-66
2023/12/04 01:12:31;;;;;;;7.32;6.47;;;;;;;;;;10325579;28;20060;-65
2023/12/04 01:17:29;;;;;;;9.13;8.00;;;;;;;;;;10325252;28;20068;-66
2023/12/04 01:22:27;;;;;;;7.82;6.63;;;;;;;;;;10332644;28;20045;-66
2023/12/04 01:27:25;;;;;;;8.38;6.40;;;;;;;;;;10333727;28;20068;-65
2023/12/04 01:32:25;;;;;;;8.20;7.00;;;;;;;;;;10330912;28;20079;-66
2023/12/04 01:37:24;;;;;;;11.85;10.23;;;;;;;;;;10332972;28;20099;-66
2023/12/04 01:42:22;;;;;;;9.65;8.45;;;;;;;;;;10332044;28;20531;-66
2023/12/04 01:47:21;;;;;;;10.43;8.13;;;;;;;;;;10332609;28;20095;-67
2023/12/04 01:52:20;;;;;;;12.75;11.20;;;;;;;;;;10330453;28;20536;-67
2023/12/04 01:57:21;;;;;;;12.68;8.90;;;;;;;;;;10331945;28;20068;-66
2023/12/04 02:02:20;;;;;;;10.48;8.65;;;;;;;;;;10333282;28;20080;-67
2023/12/04 02:07:18;;;;;;;12.57;11.27;;;;;;;;;;10334060;28;20071;-67
2023/12/04 02:12:18;;;;;;;10.82;9.73;;;;;;;;;;10325615;28;20074;-67
2023/12/04 02:17:17;;;;;;;9.13;8.13;;;;;;;;;;10322613;28;20481;-66
2023/12/04 02:22:17;;;;;;;19.10;14.10;;;;;;;;;;10330595;28;20071;-66
2023/12/04 02:27:18;;;;;;;10.18;8.90;;;;;;;;;;10330062;28;20076;-66
2023/12/04 02:32:18;;;;;;;10.05;8.05;;;;;;;;;;10330880;28;20076;-66
2023/12/04 02:37:17;;;;;;;8.93;7.28;;;;;;;;;;10329132;28;20087;-66
2023/12/04 02:42:17;;;;;;;10.27;7.05;;;;;;;;;;10330354;28;20064;-67
2023/12/04 02:47:16;;;;;;;9.38;6.70;;;;;;;;;;10328516;28;20523;-67
2023/12/04 02:52:15;;;;;;;7.22;6.53;;;;;;;;;;10326914;28;20084;-66
2023/12/04 02:57:13;;;;;;;7.47;6.68;;;;;;;;;;10327481;28;20068;-66
2023/12/04 03:02:11;;;;;;;8.02;7.00;;;;;;;;;;10319646;28;20484;-66
2023/12/04 03:07:11;;;;;;;9.02;6.63;;;;;;;;;;10329510;28;20073;-67
2023/12/04 03:12:09;;;;;;;8.23;6.53;;;;;;;;;;10328176;28;20492;-67
2023/12/04 03:17:07;;;;;;;7.57;6.78;;;;;;;;;;10328169;28;20082;-66
2023/12/04 03:22:05;;;;;;;20.33;13.82;;;;;;;;;;10323597;28;20079;-66
2023/12/04 03:27:06;;;;;;;8.63;7.28;;;;;;;;;;10327660;28;20449;-67
2023/12/04 03:32:05;;;;;;;8.38;7.32;;;;;;;;;;10328265;28;20064;-67
2023/12/04 03:37:03;;;;;;;7.85;6.95;;;;;;;;;;10328086;28;20080;-66
2023/12/04 03:42:01;;;;;;;7.03;6.35;;;;;;;;;;10327299;28;20071;-66
2023/12/04 03:47:01;;;;;;;8.60;7.07;;;;;;;;;;10323478;28;20501;-64
2023/12/04 03:51:59;;;;;;;8.52;6.72;;;;;;;;;;10327426;28;20071;-66
2023/12/04 03:56:57;;;;;;;9.50;8.48;;;;;;;;;;10327357;28;20501;-66
2023/12/04 04:01:56;;;;;;;8.50;7.60;;;;;;;;;;10311659;28;20079;-65
2023/12/04 04:06:56;;;;;;;34.13;19.75;;;;;;;;;;10328333;28;20057;-65
2023/12/04 04:11:57;;;;;;;15.43;11.75;;;;;;;;;;10328917;28;20064;-66
2023/12/04 04:16:55;;;;;;;17.02;12.73;;;;;;;;;;10331868;28;20072;-65
2023/12/04 04:21:53;;;;;;;24.95;18.10;;;;;;;;;;10329887;28;20040;-66
2023/12/04 04:26:53;;;;;;;12.10;10.18;;;;;;;;;;10326253;28;20068;-66
2023/12/04 04:31:51;;;;;;;18.17;11.18;;;;;;;;;;10327841;28;20109;-65
2023/12/04 04:36:49;;;;;;;8.65;7.65;;;;;;;;;;10323735;28;20075;-65
2023/12/04 04:41:48;;;;;;;8.50;7.00;;;;;;;;;;10327342;28;20067;-65
2023/12/04 04:46:47;;;;;;;7.93;7.10;;;;;;;;;;10326768;28;20157;-64
2023/12/04 04:51:45;;;;;;;9.80;8.77;;;;;;;;;;10324285;28;20063;-65
2023/12/04 04:56:44;;;;;;;11.15;8.57;;;;;;;;;;10336545;28;20072;-66
2023/12/04 05:01:42;;;;;;;8.93;7.85;;;;;;;;;;10338036;28;20079;-66
2023/12/04 05:06:41;;;;;;;10.70;8.65;;;;;;;;;;10332823;28;20068;-67
2023/12/04 05:11:40;;;;;;;7.50;6.70;;;;;;;;;;10333453;28;20082;-65
2023/12/04 05:16:38;;;;;;;8.35;7.07;;;;;;;;;;10336143;28;20460;-65
2023/12/04 05:21:36;;;;;;;10.25;8.07;;;;;;;;;;10333886;28;20071;-66
2023/12/04 05:26:36;;;;;;;9.57;8.57;;;;;;;;;;10289851;28;20135;-65
2023/12/04 05:31:34;;;;;;;10.48;9.38;;;;;;;;;;10319109;28;20548;-64
2023/12/04 05:36:32;;;;;;;7.65;6.88;;;;;;;;;;10309974;28;20079;-65
2023/12/04 05:41:31;;;;;;;11.23;8.02;;;;;;;;;;10295385;28;20841;-66
2023/12/04 05:46:32;;;;;;;13.52;9.38;;;;;;;;;;10329179;28;20060;-66
2023/12/04 05:51:30;;;;;;;10.20;9.20;;;;;;;;;;10330699;28;20079;-66
2023/12/04 05:56:32;;;;;;;8.98;7.65;;;;;;;;;;10316662;28;20233;-65
2023/12/04 06:01:31;;;;;;;9.65;8.55;;;;;;;;;;10327370;28;20072;-65
2023/12/04 06:06:30;;;;;;;16.20;12.38;;;;;;;;;;10328875;28;20087;-65
2023/12/04 06:11:28;;;;;;;19.30;15.70;;;;;;;;;;10335798;28;20067;-65
2023/12/04 06:16:26;;;;;;;15.93;14.32;;;;;;;;;;10318848;28;20143;-65
2023/12/04 06:21:26;;;;;;;33.80;22.73;;;;;;;;;;10329432;28;20060;-66
2023/12/04 06:26:24;;;;;;;9.90;8.70;;;;;;;;;;10331638;28;20087;-66
2023/12/04 06:31:23;;;;;;;9.27;8.35;;;;;;;;;;10339285;28;20067;-65
2023/12/04 06:36:22;;;;;;;9.63;8.68;;;;;;;;;;10326561;28;20746;-65
2023/12/04 06:41:22;;;;;;;11.70;10.43;;;;;;;;;;10328363;28;20466;-65
2023/12/04 06:46:21;;;;;;;11.95;10.75;;;;;;;;;;10332258;28;20064;-66
2023/12/04 06:51:20;;;;;;;13.00;11.13;;;;;;;;;;10338211;28;20075;-65
2023/12/04 06:56:18;;;;;;;8.65;7.75;;;;;;;;;;10323520;28;20067;-64
2023/12/04 07:01:19;;;;;;;9.18;8.10;;;;;;;;;;10315131;28;21384;-65
2023/12/04 07:06:17;;;;;;;11.93;10.10;;;;;;;;;;10322194;28;20527;-65
2023/12/04 07:11:16;;;;;;;13.45;10.32;;;;;;;;;;10336551;28;20068;-65
2023/12/04 07:16:14;;;;;;;15.45;11.82;;;;;;;;;;10325012;28;20484;-65
2023/12/04 07:21:14;;;;;;;10.95;9.85;;;;;;;;;;10333736;28;20072;-65
2023/12/04 07:26:12;;;;;;;10.38;9.25;;;;;;;;;;10334508;28;20400;-66
2023/12/04 07:31:11;;;;;;;11.98;10.73;;;;;;;;;;10333880;28;20067;-67
2023/12/04 07:36:10;;;;;;;12.48;10.20;;;;;;;;;;10337523;28;20064;-66
2023/12/04 07:41:09;;;;;;;10.57;8.90;;;;;;;;;;10317613;28;20098;-67
2023/12/04 07:46:09;;;;;;;14.38;12.30;;;;;;;;;;10314454;28;20551;-67
2023/12/04 07:51:08;;;;;;;10.55;9.07;;;;;;;;;;10314379;28;20135;-66
2023/12/04 07:56:07;;;;;;;9.48;8.05;;;;;;;;;;10318757;28;21025;-67
2023/12/04 08:01:07;;;;;;;10.75;8.95;;;;;;;;;;10312644;28;20124;-67
2023/12/04 08:06:06;;;;;;;8.68;7.70;;;;;;;;;;10327790;28;20476;-66
2023/12/04 08:11:04;;;;;;;12.90;8.07;;;;;;;;;;10302104;28;20134;-65
2023/12/04 08:16:03;;;;;;;15.30;13.70;;;;;;;;;;10301579;28;20151;-65
2023/12/04 08:21:02;;;;;;;17.70;15.10;;;;;;;;;;10323056;28;20080;-65
2023/12/04 08:26:01;;;;;;;13.45;11.02;;;;;;;;;;10315596;28;20106;-66
2023/12/04 08:31:00;;;;;;;11.90;9.65;;;;;;;;;;10323883;28;20068;-66
2023/12/04 08:35:58;;;;;;;23.67;15.75;;;;;;;;;;10317868;28;20131;-66
2023/12/04 08:40:58;;;;;;;20.17;13.75;;;;;;;;;;10327821;28;20088;-65
2023/12/04 08:45:57;;;;;;;24.08;16.17;;;;;;;;;;10331960;28;20067;-66
2023/12/04 08:50:55;;;;;;;16.05;11.77;;;;;;;;;;10328744;28;20072;-66
2023/12/04 08:55:53;;;;;;;28.02;14.02;;;;;;;;;;10328434;28;20068;-65
2023/12/04 09:00:53;;;;;;;14.50;11.55;;;;;;;;;;10328401;28;20083;-64
2023/12/04 09:05:51;;;;;;;55.67;30.73;;;;;;;;;;10333837;28;20068;-66
2023/12/04 09:10:50;;;;;;;164.38;63.45;;;;;;;;;;10333064;28;20075;-66
2023/12/04 09:16:10;;;;;;;47.33;28.08;;;;;;;;;;10335269;28;20509;-65
2023/12/04 09:21:09;;;;;;;14.05;11.45;;;;;;;;;;10332706;28;20091;-65
2023/12/04 09:26:07;;;;;;;22.20;12.68;;;;;;;;;;10332011;28;20075;-66
2023/12/04 09:31:05;;;;;;;20.25;14.40;;;;;;;;;;10332309;28;20068;-66
2023/12/04 09:36:05;;;;;;;20.45;15.18;;;;;;;;;;10329167;28;20045;-67
2023/12/04 09:41:04;;;;;;;18.13;13.02;;;;;;;;;;10331239;28;20478;-66
2023/12/04 09:46:03;;;;;;;16.92;12.68;;;;;;;;;;10334037;28;20064;-66
2023/12/04 09:51:02;;;;;;;10.55;9.45;;;;;;;;;;10331179;28;20504;-66
2023/12/04 09:56:03;;;;;;;12.75;8.68;;;;;;;;;;10331354;28;20496;-65
2023/12/04 10:01:02;;;;;;;10.57;9.57;;;;;;;;;;10312123;28;20492;-65
2023/12/04 10:06:01;;;;;;;11.63;9.18;;;;;;;;;;10331253;28;20079;-67
2023/12/04 10:11:01;;;;;;;16.25;12.73;;;;;;;;;;10330316;28;20094;-66
2023/12/04 10:16:00;;;;;;;13.50;8.85;;;;;;;;;;10331824;28;20068;-67
2023/12/04 10:20:59;;;;;;;11.52;8.20;;;;;;;;;;10330328;28;20076;-66
2023/12/04 10:26:01;;;;;;;15.98;11.88;;;;;;;;;;10329909;28;20079;-66
2023/12/04 10:31:00;;;;;;;17.92;13.73;;;;;;;;;;10329740;28;20068;-66
2023/12/04 10:35:59;;;;;;;23.35;16.50;;;;;;;;;;10321617;28;20052;-66
2023/12/04 10:40:57;;;;;;;20.48;15.40;;;;;;;;;;10330580;28;20501;-66
2023/12/04 10:45:56;;;;;;;10.07;8.82;;;;;;;;;;10329822;28;20064;-67
2023/12/04 10:50:58;;;;;;;11.55;9.85;;;;;;;;;;10329393;28;20071;-66
2023/12/04 10:55:57;;;;;;;12.38;10.30;;;;;;;;;;10329569;28;20064;-66
2023/12/04 11:00:56;;;;;;;15.57;11.85;;;;;;;;;;10313542;28;20075;-65
2023/12/04 11:05:57;;;;;;;16.15;11.88;;;;;;;;;;10332000;28;20072;-66
2023/12/04 11:10:57;;;;;;;28.70;22.23;;;;;;;;;;10329363;28;20083;-65
2023/12/04 11:15:58;;;;;;;38.42;24.25;;;;;;;;;;10323758;28;20071;-66
2023/12/04 11:20:59;;;;;;;27.20;21.25;;;;;;;;;;10310564;28;20155;-65
2023/12/04 11:25:57;;;;;;;12.07;10.85;;;;;;;;;;10324553;28;20604;-66
2023/12/04 11:30:56;;;;;;;17.27;13.90;;;;;;;;;;10328913;28;20071;-66
2023/12/04 11:36:06;;;;;;;11.75;9.45;;;;;;;;;;10327287;28;20082;-66
2023/12/04 11:41:17;;;;;;;12.93;11.35;;;;;;;;;;10326444;28;20098;-66
2023/12/04 11:46:22;;;;;;;18.42;12.32;;;;;;;;;;10329325;28;20072;-66
2023/12/04 11:51:42;;;;;;;17.00;13.23;;;;;;;;;;10328851;28;20067;-66
2023/12/04 11:56:41;;;;;;;16.95;12.52;;;;;;;;;;10326072;28;20072;-66
2023/12/04 12:01:40;;;;;;;11.85;8.80;;;;;;;;;;10325884;28;20082;-67
2023/12/04 12:06:39;;;;;;;44.00;24.23;;;;;;;;;;10325864;28;20076;-67
2023/12/04 12:11:37;;;;;;;13.23;9.68;;;;;;;;;;10327848;28;20465;-66
2023/12/04 12:16:37;;;;;;;8.75;7.85;;;;;;;;;;10327135;28;20072;-66
2023/12/04 12:21:36;;;;;;;11.35;10.10;;;;;;;;;;10326448;28;20079;-66
2023/12/04 12:26:35;;;;;;;8.73;7.82;;;;;;;;;;10327057;28;20071;-66
2023/12/04 12:31:33;;;;;;;11.00;8.63;;;;;;;;;;10325787;28;20134;-66
2023/12/04 12:36:33;;;;;;;8.48;7.63;;;;;;;;;;10326335;28;20068;-67
2023/12/04 12:41:32;;;;;;;10.50;9.32;;;;;;;;;;10320555;28;20087;-66
2023/12/04 12:46:30;;;;;;;7.43;6.68;;;;;;;;;;10325863;28;20079;-66
2023/12/04 12:51:29;;;;;;;7.18;6.47;;;;;;;;;;10325428;28;20056;-66
2023/12/04 12:56:28;;;;;;;11.93;9.23;;;;;;;;;;10325875;28;20083;-67
2023/12/04 13:01:31;;;;;;;15.52;10.93;;;;;;;;;;10322277;28;20080;-66
2023/12/04 13:06:29;;;;;;;11.65;10.00;;;;;;;;;;10322600;28;20517;-66
2023/12/04 13:11:31;;;;;;;30.27;19.23;;;;;;;;;;10323069;28;20076;-66
2023/12/04 13:16:29;;;;;;;14.70;10.48;;;;;;;;;;10330811;28;20067;-66
2023/12/04 13:21:28;;;;;;;10.40;9.27;;;;;;;;;;10331797;28;20095;-66
2023/12/04 13:26:26;;;;;;;16.83;13.65;;;;;;;;;;10332675;28;20078;-66
2023/12/04 13:31:27;;;;;;;11.32;9.23;;;;;;;;;;10332527;28;20068;-66
2023/12/04 13:36:28;;;;;;;11.82;10.55;;;;;;;;;;10319974;28;20052;-65
2023/12/04 13:46:43;;;;;;;22.08;15.02;;;;;;;;;;10331208;28;20068;-66
2023/12/04 13:51:42;;;;;;;21.92;15.02;;;;;;;;;;10328794;28;20072;-66
2023/12/04 13:56:51;;;;;;;56.83;32.35;;;;;;;;;;10331273;28;20099;-65
2023/12/04 14:01:54;;;;;;;18.27;14.02;;;;;;;;;;10314412;28;20471;-64
2023/12/04 14:06:52;;;;;;;21.13;15.43;;;;;;;;;;10313713;28;20409;-65
2023/12/04 14:11:51;;;;;;;13.63;11.52;;;;;;;;;;10331623;28;20064;-66
2023/12/04 14:16:52;;;;;;;14.65;12.55;;;;;;;;;;10331980;28;20071;-65
2023/12/04 14:21:50;;;;;;;24.67;17.02;;;;;;;;;;10332634;28;20075;-66
2023/12/04 14:26:49;;;;;;;19.15;17.08;;;;;;;;;;10329001;28;20473;-66
2023/12/04 14:31:47;;;;;;;25.90;20.20;;;;;;;;;;10329812;28;20083;-66
2023/12/04 14:36:47;;;;;;;52.75;36.08;;;;;;;;;;10325800;28;20461;-66
2023/12/04 14:41:45;;;;;;;59.05;34.70;;;;;;;;;;10330403;28;20072;-67
2023/12/04 14:46:45;;;;;;;67.10;40.28;;;;;;;;;;10311519;28;20428;-67
2023/12/04 14:51:47;;;;;;;61.20;40.42;;;;;;;;;;10329633;28;20072;-66
2023/12/04 15:02:40;;;;;;;122.85;76.00;;;;;;;;;;10326804;28;20083;-66
2023/12/04 15:08:08;;;;;;;73.28;50.13;;;;;;;;;;10332294;28;20071;-66
2023/12/04 15:13:34;;;;;;;67.05;47.42;;;;;;;;;;10330398;28;20451;-67
2023/12/04 15:18:37;;;;;;;49.17;37.00;;;;;;;;;;10327615;28;20084;-65
2023/12/04 15:23:36;;;;;;;55.97;36.63;;;;;;;;;;10328776;28;20079;-66
2023/12/04 15:28:35;;;;;;;68.72;45.72;;;;;;;;;;10326632;28;20517;-65
2023/12/04 15:33:34;;;;;;;75.60;48.97;;;;;;;;;;10307492;28;20140;-68
2023/12/04 15:38:32;;;;;;;91.03;61.00;;;;;;;;;;10280982;28;20183;-65
2023/12/04 15:43:30;;;;;;;80.22;51.88;;;;;;;;;;10321505;28;20131;-65
2023/12/04 15:48:30;;;;;;;68.50;47.40;;;;;;;;;;10323868;28;20501;-65
2023/12/04 15:53:29;;;;;;;85.20;52.83;;;;;;;;;;10316824;28;20059;-65
2023/12/04 15:58:27;;;;;;;73.93;47.90;;;;;;;;;;10313400;28;20071;-66
2023/12/04 16:03:26;;;;;;;62.78;44.70;;;;;;;;;;10302740;28;20139;-65
2023/12/04 16:08:25;;;;;;;56.45;41.35;;;;;;;;;;10311850;28;20136;-63
2023/12/04 16:13:23;;;;;;;48.67;36.70;;;;;;;;;;10312015;28;20136;-64
2023/12/04 16:18:22;;;;;;;53.95;38.20;;;;;;;;;;10313284;28;20076;-65
2023/12/04 16:23:21;;;;;;;46.08;35.85;;;;;;;;;;10310532;28;20156;-64
2023/12/04 16:28:22;;;;;;;40.97;33.08;;;;;;;;;;10316215;28;20176;-65
2023/12/04 16:33:20;;;;;;;69.60;49.45;;;;;;;;;;10306269;28;20540;-64
2023/12/04 16:38:19;;;;;;;63.97;47.67;;;;;;;;;;10295080;28;20139;-63
2023/12/04 16:43:17;;;;;;;57.17;43.72;;;;;;;;;;10293355;28;20116;-64
2023/12/04 16:48:17;;;;;;;59.25;39.92;;;;;;;;;;10299320;28;20174;-63
2023/12/04 16:53:15;;;;;;;44.75;35.75;;;;;;;;;;10299066;28;20115;-64
2023/12/04 16:58:13;;;;;;;53.15;39.60;;;;;;;;;;10298726;28;20143;-64
2023/12/04 17:03:12;;;;;;;50.42;37.88;;;;;;;;;;10297232;28;20060;-64
2023/12/04 17:08:12;;;;;;;62.42;48.30;;;;;;;;;;10291533;28;20040;-63
2023/12/04 17:13:10;;;;;;;50.40;36.95;;;;;;;;;;10295593;28;20135;-64
2023/12/04 17:18:10;;;;;;;42.22;31.60;;;;;;;;;;10296407;28;20119;-64
2023/12/04 17:23:11;;;;;;;56.47;42.88;;;;;;;;;;10300906;28;20151;-65
2023/12/04 17:28:10;;;;;;;56.30;41.13;;;;;;;;;;10289916;28;20036;-64
2023/12/04 17:33:09;;;;;;;60.45;44.20;;;;;;;;;;10280792;28;20151;-64
2023/12/04 17:38:07;;;;;;;54.22;39.13;;;;;;;;;;10298695;28;20514;-65
2023/12/04 17:43:07;;;;;;;49.05;36.95;;;;;;;;;;10299109;28;20128;-65
2023/12/04 17:48:05;;;;;;;43.40;33.88;;;;;;;;;;10300044;28;20116;-64
2023/12/04 17:53:04;;;;;;;47.17;33.10;;;;;;;;;;10302381;28;20481;-65
2023/12/04 17:58:02;;;;;;;41.58;29.90;;;;;;;;;;10283555;28;20146;-63
2023/12/04 18:03:02;;;;;;;38.85;27.15;;;;;;;;;;10297743;28;20131;-65
2023/12/04 18:08:02;;;;;;;48.67;29.92;;;;;;;;;;10299243;28;20131;-65
2023/12/04 18:13:00;;;;;;;54.40;31.85;;;;;;;;;;10299219;28;20147;-64
2023/12/04 18:17:59;;;;;;;45.70;27.92;;;;;;;;;;10300491;28;20167;-63
2023/12/04 18:22:59;;;;;;;40.17;28.95;;;;;;;;;;10294732;28;20131;-64
2023/12/04 18:27:58;;;;;;;38.55;26.67;;;;;;;;;;10298976;28;20115;-63
2023/12/04 18:32:57;;;;;;;43.03;26.98;;;;;;;;;;10295391;28;20140;-64
2023/12/04 18:37:59;;;;;;;40.92;27.70;;;;;;;;;;10303043;28;20139;-63
2023/12/04 18:43:00;;;;;;;43.80;27.80;;;;;;;;;;10292157;28;20044;-67
2023/12/04 18:48:00;;;;;;;42.55;28.92;;;;;;;;;;10288869;28;20655;-65
2023/12/04 18:52:58;;;;;;;45.22;29.40;;;;;;;;;;10283613;28;20140;-65
2023/12/04 18:57:58;;;;;;;40.80;32.28;;;;;;;;;;10290693;28;20559;-67
2023/12/04 19:02:57;;;;;;;36.38;26.40;;;;;;;;;;10288737;28;20052;-66
2023/12/04 19:07:55;;;;;;;42.05;30.60;;;;;;;;;;10285109;28;20496;-66
2023/12/04 19:12:53;;;;;;;46.10;32.50;;;;;;;;;;10288280;28;20119;-65
2023/12/04 19:17:53;;;;;;;36.03;28.77;;;;;;;;;;10267489;28;20123;-66
2023/12/04 19:22:52;;;;;;;30.95;25.15;;;;;;;;;;10289245;28;20036;-66
2023/12/04 19:27:50;;;;;;;33.20;24.08;;;;;;;;;;10315946;28;20445;-67
2023/12/04 19:32:49;;;;;;;27.20;21.17;;;;;;;;;;10310746;28;20156;-65
2023/12/04 19:37:48;;;;;;;25.75;20.20;;;;;;;;;;10290708;28;20139;-65
2023/12/04 19:42:47;;;;;;;26.30;20.85;;;;;;;;;;10289334;28;20123;-66
2023/12/04 19:47:45;;;;;;;24.90;19.67;;;;;;;;;;10320127;28;20841;-66
2023/12/04 19:52:43;;;;;;;28.95;21.48;;;;;;;;;;10327354;28;20060;-66
2023/12/04 19:57:43;;;;;;;25.80;21.52;;;;;;;;;;10311703;28;20072;-66
2023/12/04 20:02:41;;;;;;;27.92;23.77;;;;;;;;;;10326003;28;20588;-66
2023/12/04 20:07:39;;;;;;;21.05;16.05;;;;;;;;;;10289679;28;20131;-66
2023/12/04 20:12:38;;;;;;;17.98;14.77;;;;;;;;;;10288063;28;20131;-67
2023/12/04 20:17:37;;;;;;;15.05;13.40;;;;;;;;;;10285797;28;20046;-66
2023/12/04 20:22:36;;;;;;;17.50;13.90;;;;;;;;;;10272501;28;20146;-66
2023/12/04 20:27:35;;;;;;;17.67;13.70;;;;;;;;;;10287051;28;20135;-66
2023/12/04 20:32:33;;;;;;;16.48;14.02;;;;;;;;;;10285479;28;20127;-67
2023/12/04 20:37:33;;;;;;;14.80;13.15;;;;;;;;;;10306540;28;20084;-66
2023/12/04 20:42:39;;;;;;;12.65;11.07;;;;;;;;;;10326471;28;20064;-66
2023/12/04 20:47:38;;;;;;;15.13;12.95;;;;;;;;;;10285607;28;21129;-66
2023/12/04 20:52:37;;;;;;;15.63;12.93;;;;;;;;;;10286274;28;20139;-67
2023/12/04 20:57:36;;;;;;;14.63;9.98;;;;;;;;;;10305209;28;20119;-66
2023/12/04 21:02:34;;;;;;;15.35;11.38;;;;;;;;;;10291390;28;21166;-67
2023/12/04 21:07:32;;;;;;;11.40;9.88;;;;;;;;;;10318136;28;20095;-65
2023/12/04 21:12:35;;;;;;;10.15;9.15;;;;;;;;;;10329658;28;20474;-67
2023/12/04 21:17:34;;;;;;;9.93;8.75;;;;;;;;;;10327866;28;20068;-65
2023/12/04 21:22:32;;;;;;;11.25;9.43;;;;;;;;;;10324949;28;20095;-67
2023/12/04 21:27:32;;;;;;;11.63;9.60;;;;;;;;;;10300864;28;20181;-66
2023/12/04 21:32:30;;;;;;;11.32;8.77;;;;;;;;;;10287825;28;20119;-67
2023/12/04 21:37:28;;;;;;;18.73;12.20;;;;;;;;;;10289331;28;20542;-68
2023/12/04 21:42:27;;;;;;;27.27;15.90;;;;;;;;;;10292709;28;20131;-66
2023/12/04 21:47:26;;;;;;;34.97;19.00;;;;;;;;;;10292194;28;20131;-66
2023/12/04 21:52:25;;;;;;;50.38;23.60;;;;;;;;;;10298159;28;20127;-67
2023/12/04 21:57:23;;;;;;;46.63;22.13;;;;;;;;;;10304147;28;20052;-66
2023/12/04 22:02:23;;;;;;;21.20;18.05;;;;;;;;;;10316219;28;20131;-65
2023/12/04 22:07:23;;;;;;;9.63;8.63;;;;;;;;;;10291654;28;20136;-65
2023/12/04 22:12:22;;;;;;;9.10;7.30;;;;;;;;;;10302328;28;20119;-67
2023/12/04 22:17:20;;;;;;;8.95;7.78;;;;;;;;;;10307019;28;20419;-66
2023/12/04 22:22:20;;;;;;;9.68;8.23;;;;;;;;;;10301927;28;20059;-67
2023/12/04 22:27:20;;;;;;;11.70;9.27;;;;;;;;;;10301833;28;20151;-66
2023/12/04 22:32:18;;;;;;;13.63;8.32;;;;;;;;;;10300983;28;20119;-67
2023/12/04 22:37:16;;;;;;;10.52;8.90;;;;;;;;;;10298604;28;20230;-66
2023/12/04 22:42:15;;;;;;;21.17;15.05;;;;;;;;;;10299117;28;20135;-66
2023/12/04 22:47:14;;;;;;;14.32;10.20;;;;;;;;;;10305004;28;20142;-67
2023/12/04 22:52:12;;;;;;;11.88;7.65;;;;;;;;;;10306521;28;20146;-66
2023/12/04 22:57:11;;;;;;;8.88;7.68;;;;;;;;;;10299915;28;20559;-67
2023/12/04 23:02:09;;;;;;;7.68;6.88;;;;;;;;;;10310793;28;20119;-66
2023/12/04 23:07:09;;;;;;;8.98;7.63;;;;;;;;;;10326468;28;20087;-66
2023/12/04 23:12:07;;;;;;;12.75;10.32;;;;;;;;;;10324967;28;20461;-66
2023/12/04 23:17:05;;;;;;;19.45;15.15;;;;;;;;;;10326496;28;20529;-67
2023/12/04 23:22:04;;;;;;;23.27;17.85;;;;;;;;;;10325471;28;20056;-66
2023/12/04 23:27:03;;;;;;;73.18;39.95;;;;;;;;;;10305399;28;20072;-66
2023/12/04 23:32:02;;;;;;;36.40;21.70;;;;;;;;;;10325447;28;20544;-67
2023/12/04 23:37:00;;;;;;;30.13;18.63;;;;;;;;;;10321137;28;20541;-66
2023/12/04 23:41:59;;;;;;;27.15;19.35;;;;;;;;;;10326571;28;20079;-67
2023/12/04 23:46:58;;;;;;;25.73;20.63;;;;;;;;;;10327312;28;20068;-67
2023/12/04 23:51:56;;;;;;;25.38;19.30;;;;;;;;;;10327859;28;20067;-66
2023/12/04 23:56:55;;;;;;;23.65;18.05;;;;;;;;;;10328006;28;20060;-66
